Gorebridge, United Kingdom
Current Conditions -  °F | °C
As of 5:50 PM on Tuesday 21 Oct 2014 (Local Time) from EGPH Reporting Station
Few Clouds Few Clouds  
Wind Chill: 39°   Ceiling: Unl
Heat Index: 45°   Visibility: 6mi
Dew Point: 34°   Wind: 10mph
Humidity: 66%   Direction: 280°W
Pressure: 29.77"   Gusts: NA
Location:  55.85°N, 3.05°W
Report Text: EGPH 211650Z 28009KT 250V310 9999 FEW040 07/01 Q1008
Loading
Personal Weather Stations






























Interactive Weather Map
Tropical Storm Tracking
New forecast layout! Learn more

10-Day Weather Forecast

Advertisements
Track Severe Weather on mobile